createdAt,value
2023-04-21T00:02:00.913Z,9.56
2023-04-21T00:04:29.789Z,9.46
2023-04-21T00:06:58.532Z,9.48
2023-04-21T00:09:27.994Z,9.09
2023-04-21T00:11:56.347Z,9.46
2023-04-21T00:14:24.310Z,9.56
2023-04-21T00:16:53.373Z,9.46
2023-04-21T00:19:21.662Z,9.37
2023-04-21T00:21:49.532Z,9.26
2023-04-21T00:24:17.460Z,9.36
2023-04-21T00:26:46.668Z,9.29
2023-04-21T00:29:14.613Z,9.43
2023-04-21T00:31:42.545Z,9.40
2023-04-21T00:34:10.798Z,9.52
2023-04-21T00:36:38.617Z,9.54
2023-04-21T00:39:07.183Z,9.51
2023-04-21T00:41:38.624Z,9.56
2023-04-21T00:44:08.976Z,9.71
2023-04-21T00:46:38.632Z,9.68
2023-04-21T00:49:08.487Z,9.62
2023-04-21T00:51:38.581Z,9.52
2023-04-21T00:54:10.454Z,9.64
2023-04-21T00:56:38.253Z,9.76
2023-04-21T00:59:07.750Z,9.65
2023-04-21T01:01:36.546Z,9.58
2023-04-21T01:04:05.954Z,9.78
2023-04-21T01:06:34.696Z,9.81
2023-04-21T01:09:05.284Z,9.86
2023-04-21T01:11:33.295Z,9.86
2023-04-21T01:14:01.547Z,9.79
2023-04-21T01:16:32.636Z,9.11
2023-04-21T01:19:01.382Z,9.83
2023-04-21T01:21:32.109Z,9.65
2023-04-21T01:24:03.838Z,9.81
2023-04-21T01:26:31.633Z,9.42
2023-04-21T01:28:59.451Z,9.72
2023-04-21T01:31:29.258Z,9.80
2023-04-21T01:33:57.113Z,9.78
2023-04-21T01:36:24.971Z,9.38
2023-04-21T01:38:53.530Z,9.67
2023-04-21T01:41:24.888Z,9.68
2023-04-21T01:43:55.510Z,9.81
2023-04-21T01:46:25.341Z,9.57
2023-04-21T01:48:53.348Z,9.50
2023-04-21T01:51:21.158Z,9.60
2023-04-21T01:53:48.942Z,9.54
2023-04-21T01:56:18.908Z,9.50
2023-04-21T01:58:48.362Z,9.52
2023-04-21T02:01:16.326Z,9.42
2023-04-21T02:03:44.292Z,9.55
2023-04-21T02:06:13.994Z,9.44
2023-04-21T02:08:41.814Z,9.34
2023-04-21T02:11:09.800Z,9.34
2023-04-21T02:13:37.653Z,9.34
2023-04-21T02:16:13.321Z,9.16
2023-04-21T02:18:42.403Z,9.32
2023-04-21T02:21:10.241Z,9.22
2023-04-21T02:23:38.038Z,9.23
2023-04-21T02:26:06.380Z,9.12
2023-04-21T02:28:34.189Z,9.18
2023-04-21T02:31:02.137Z,9.26
2023-04-21T02:33:31.442Z,9.22
2023-04-21T02:35:59.397Z,9.20
2023-04-21T02:38:27.299Z,9.19
2023-04-21T02:40:55.167Z,9.23
2023-04-21T02:43:22.991Z,9.14
2023-04-21T02:45:50.886Z,8.91
2023-04-21T02:48:22.912Z,9.10
2023-04-21T02:50:54.022Z,9.09
2023-04-21T02:53:21.976Z,9.06
2023-04-21T02:55:49.808Z,9.18
2023-04-21T02:58:17.687Z,9.23
2023-04-21T03:00:45.918Z,9.21
2023-04-21T03:03:13.900Z,9.09
2023-04-21T03:05:43.575Z,9.09
2023-04-21T03:08:12.778Z,9.04
2023-04-21T03:10:40.778Z,8.99
2023-04-21T03:13:08.592Z,8.21
2023-04-21T03:15:36.435Z,9.12
2023-04-21T03:18:04.303Z,9.05
2023-04-21T03:20:32.138Z,9.17
2023-04-21T03:22:59.969Z,9.19
2023-04-21T03:25:29.508Z,9.02
2023-04-21T03:27:57.645Z,9.03
2023-04-21T03:30:26.968Z,8.91
2023-04-21T03:32:55.743Z,9.06
2023-04-21T03:35:23.723Z,9.08
2023-04-21T03:37:51.810Z,9.00
2023-04-21T03:40:19.791Z,9.09
2023-04-21T03:42:48.970Z,9.17
2023-04-21T03:45:19.526Z,9.17
2023-04-21T03:47:47.372Z,9.07
2023-04-21T03:50:15.394Z,9.09
2023-04-21T03:52:43.178Z,9.16
2023-04-21T03:55:12.071Z,9.19
2023-04-21T03:57:41.277Z,8.98
2023-04-21T04:00:11.670Z,8.44
2023-04-21T04:02:43.823Z,8.87
2023-04-21T04:05:11.892Z,8.93
2023-04-21T04:07:39.694Z,8.88
2023-04-21T04:10:07.839Z,8.84
2023-04-21T04:12:35.635Z,8.79
2023-04-21T04:15:03.732Z,8.48
2023-04-21T04:17:32.972Z,8.57
2023-04-21T04:20:01.828Z,8.61
2023-04-21T04:22:29.663Z,8.63
2023-04-21T04:24:59.840Z,8.64
2023-04-21T04:27:29.526Z,8.70
2023-04-21T04:29:57.670Z,8.68
2023-04-21T04:32:28.615Z,8.69
2023-04-21T04:34:58.868Z,8.50
2023-04-21T04:37:26.763Z,8.67
2023-04-21T04:39:54.602Z,8.71
2023-04-21T04:42:22.448Z,8.80
2023-04-21T04:44:50.569Z,8.88
2023-04-21T04:47:18.340Z,8.99
2023-04-21T04:49:46.183Z,8.85
2023-04-21T04:52:15.514Z,8.66
2023-04-21T04:54:43.416Z,9.31
2023-04-21T04:57:11.228Z,9.14
2023-04-21T04:59:39.128Z,9.22
2023-04-21T05:02:08.581Z,9.17
2023-04-21T05:04:36.671Z,9.13
2023-04-21T05:07:06.063Z,9.10
2023-04-21T05:09:35.872Z,9.08
2023-04-21T05:12:04.025Z,9.00
2023-04-21T05:14:31.780Z,9.24
2023-04-21T05:16:59.671Z,9.38
2023-04-21T05:19:27.578Z,9.38
2023-04-21T05:22:00.693Z,9.75
2023-04-21T05:24:28.910Z,9.67
2023-04-21T05:26:58.141Z,9.46
2023-04-21T05:29:26.045Z,9.40
2023-04-21T05:31:53.950Z,9.37
2023-04-21T05:34:22.154Z,9.38
2023-04-21T05:36:50.091Z,9.34
2023-04-21T05:39:18.159Z,9.65
2023-04-21T05:41:46.094Z,10.00
2023-04-21T05:44:17.678Z,10.26
2023-04-21T05:46:45.956Z,10.39
2023-04-21T05:49:13.981Z,10.44
2023-04-21T05:51:42.378Z,10.64
2023-04-21T05:54:10.220Z,10.74
2023-04-21T05:56:38.314Z,10.88
2023-04-21T05:59:06.902Z,10.98
2023-04-21T06:01:37.474Z,10.98
2023-04-21T06:04:05.624Z,11.15
2023-04-21T06:06:33.849Z,11.16
2023-04-21T06:09:01.989Z,10.99
2023-04-21T06:11:29.730Z,11.21
2023-04-21T06:13:59.468Z,11.08
2023-04-21T06:16:27.913Z,11.24
2023-04-21T06:18:58.901Z,11.30
2023-04-21T06:21:26.895Z,11.07
2023-04-21T06:23:54.750Z,11.21
2023-04-21T06:26:22.732Z,11.09
2023-04-21T06:28:50.657Z,11.52
2023-04-21T06:31:19.816Z,11.28
2023-04-21T06:33:47.807Z,11.49
2023-04-21T06:36:18.102Z,11.69
2023-04-21T06:38:46.348Z,11.69
2023-04-21T06:41:14.104Z,11.42
2023-04-21T06:43:42.095Z,11.51
2023-04-21T06:46:09.936Z,11.51
2023-04-21T06:48:37.694Z,11.07
2023-04-21T06:51:05.804Z,11.16
2023-04-21T06:53:35.183Z,11.16
2023-04-21T06:56:03.060Z,11.20
2023-04-21T06:58:30.826Z,11.55
2023-04-21T07:00:58.659Z,11.57
2023-04-21T07:03:26.579Z,11.73
2023-04-21T07:05:54.518Z,12.01
2023-04-21T07:08:22.366Z,12.27
2023-04-21T07:10:51.530Z,11.45
2023-04-21T07:13:19.569Z,12.27
2023-04-21T07:15:47.534Z,12.34
2023-04-21T07:18:15.481Z,12.46
2023-04-21T07:20:43.425Z,12.74
2023-04-21T07:23:11.251Z,13.03
2023-04-21T07:25:39.153Z,12.63
2023-04-21T07:28:08.295Z,12.95
2023-04-21T07:30:37.133Z,13.25
2023-04-21T07:33:05.114Z,12.75
2023-04-21T07:35:32.927Z,13.08
2023-04-21T07:38:00.761Z,13.31
2023-04-21T07:40:28.799Z,13.15
2023-04-21T07:42:56.792Z,13.40
2023-04-21T07:45:26.427Z,13.25
2023-04-21T07:47:54.762Z,13.71
2023-04-21T07:50:22.590Z,13.62
2023-04-21T07:52:50.596Z,13.87
2023-04-21T07:55:18.510Z,14.13
2023-04-21T07:57:46.336Z,13.78
2023-04-21T08:00:15.872Z,14.38
2023-04-21T08:02:45.087Z,14.34
2023-04-21T08:05:13.316Z,14.10
2023-04-21T08:07:41.143Z,14.22
2023-04-21T08:10:10.326Z,14.41
2023-04-21T08:12:40.169Z,14.38
2023-04-21T08:15:08.813Z,14.50
2023-04-21T08:17:36.642Z,15.06
2023-04-21T08:20:06.988Z,14.66
2023-04-21T08:22:35.813Z,14.73
2023-04-21T08:25:03.882Z,15.05
2023-04-21T08:27:31.633Z,15.17
2023-04-21T08:30:00.228Z,14.62
2023-04-21T08:32:28.106Z,15.20
2023-04-21T08:34:56.163Z,15.32
2023-04-21T08:37:25.667Z,15.24
2023-04-21T08:39:54.434Z,15.15
2023-04-21T08:42:22.308Z,15.42
2023-04-21T08:44:50.287Z,15.58
2023-04-21T08:47:18.386Z,14.77
2023-04-21T08:49:46.383Z,15.36
2023-04-21T08:52:14.773Z,15.06
2023-04-21T08:54:44.236Z,15.55
2023-04-21T08:57:15.923Z,15.77
2023-04-21T08:59:46.083Z,16.08
2023-04-21T09:02:16.235Z,16.06
2023-04-21T09:04:46.444Z,16.08
2023-04-21T09:07:30.743Z,15.85
2023-04-21T09:10:01.324Z,16.20
2023-04-21T09:12:30.412Z,15.90
2023-04-21T09:14:59.137Z,16.04
2023-04-21T09:17:32.659Z,15.81
2023-04-21T09:20:14.598Z,16.02
2023-04-21T09:22:42.551Z,16.22
2023-04-21T09:25:16.696Z,16.61
2023-04-21T09:27:45.061Z,16.23
2023-04-21T09:30:13.532Z,16.56
2023-04-21T09:32:41.766Z,16.62
2023-04-21T09:35:11.929Z,16.71
2023-04-21T09:37:40.334Z,16.93
2023-04-21T09:40:08.949Z,16.99
2023-04-21T09:42:39.632Z,17.30
2023-04-21T09:45:28.932Z,17.43
2023-04-21T09:48:00.441Z,16.96
2023-04-21T09:50:44.782Z,16.99
2023-04-21T09:53:22.807Z,16.85
2023-04-21T09:55:56.356Z,17.32
2023-04-21T09:58:29.148Z,16.96
2023-04-21T10:00:58.431Z,17.05
2023-04-21T10:03:28.860Z,16.80
2023-04-21T10:05:57.418Z,17.22
2023-04-21T10:08:25.284Z,16.92
2023-04-21T10:10:54.428Z,17.16
2023-04-21T10:13:23.434Z,17.06
2023-04-21T10:16:03.056Z,16.93
2023-04-21T10:18:30.957Z,17.05
2023-04-21T10:21:02.821Z,17.27
2023-04-21T10:23:32.154Z,16.74
2023-04-21T10:26:04.593Z,16.70
2023-04-21T10:28:41.244Z,17.31
2023-04-21T10:31:31.423Z,17.39
2023-04-21T10:34:30.466Z,17.67
2023-04-21T10:37:18.931Z,18.07
2023-04-21T10:39:53.761Z,17.64
2023-04-21T10:42:24.640Z,18.32
2023-04-21T10:44:54.644Z,18.09
2023-04-21T10:47:34.358Z,18.24
2023-04-21T10:50:13.179Z,18.24
2023-04-21T10:52:44.419Z,18.35
2023-04-21T10:55:13.322Z,18.38
2023-04-21T10:57:43.910Z,18.11
2023-04-21T11:00:15.605Z,18.28
2023-04-21T11:02:45.381Z,18.17
2023-04-21T11:05:14.084Z,18.07
2023-04-21T11:07:41.984Z,18.05
2023-04-21T11:10:11.383Z,18.47
2023-04-21T11:12:40.801Z,18.61
2023-04-21T11:15:10.761Z,18.28
2023-04-21T11:17:39.949Z,18.74
2023-04-21T11:20:10.533Z,18.95
2023-04-21T11:22:39.058Z,19.16
2023-04-21T11:25:17.505Z,19.12
2023-04-21T11:27:54.859Z,19.24
2023-04-21T11:30:23.277Z,19.39
2023-04-21T11:32:56.037Z,19.15
2023-04-21T11:35:25.905Z,19.55
2023-04-21T11:37:53.777Z,18.97
2023-04-21T11:40:23.059Z,19.48
2023-04-21T11:42:51.628Z,19.32
2023-04-21T11:45:22.427Z,19.21
2023-04-21T11:47:51.010Z,19.09
2023-04-21T11:50:33.191Z,19.38
2023-04-21T11:53:03.506Z,19.37
2023-04-21T11:55:31.395Z,19.50
2023-04-21T11:57:59.356Z,19.53
2023-04-21T12:00:31.921Z,19.48
2023-04-21T12:02:59.925Z,19.84
2023-04-21T12:05:37.958Z,19.30
2023-04-21T12:08:06.376Z,19.40
2023-04-21T12:10:34.323Z,19.26
2023-04-21T12:13:02.060Z,19.15
2023-04-21T12:15:32.140Z,19.09
2023-04-21T12:18:00.125Z,19.71
2023-04-21T12:20:31.166Z,19.85
2023-04-21T12:23:01.142Z,20.02
2023-04-21T12:25:29.248Z,20.10
2023-04-21T12:27:59.925Z,19.89
2023-04-21T12:30:27.893Z,19.82
2023-04-21T12:32:55.971Z,19.97
2023-04-21T12:35:23.976Z,20.11
2023-04-21T12:37:51.908Z,19.98
2023-04-21T12:40:21.171Z,20.17
2023-04-21T12:42:49.638Z,19.96
2023-04-21T12:45:17.590Z,20.09
2023-04-21T12:47:46.891Z,20.13
2023-04-21T12:50:15.197Z,20.25
2023-04-21T12:52:43.034Z,20.29
2023-04-21T12:55:13.342Z,20.27
2023-04-21T12:57:42.357Z,20.27
2023-04-21T13:00:14.766Z,20.48
2023-04-21T13:02:42.838Z,20.27
2023-04-21T13:05:12.720Z,20.24
2023-04-21T13:07:41.563Z,20.03
2023-04-21T13:10:10.201Z,20.19
2023-04-21T13:12:38.367Z,20.19
2023-04-21T13:15:09.137Z,20.13
2023-04-21T13:17:37.079Z,19.98
2023-04-21T13:20:07.248Z,20.18
2023-04-21T13:22:35.645Z,20.01
2023-04-21T13:25:04.523Z,19.99
2023-04-21T13:27:33.386Z,19.91
2023-04-21T13:30:01.407Z,19.84
2023-04-21T13:32:30.650Z,19.21
2023-04-21T13:34:58.480Z,19.65
2023-04-21T13:37:26.929Z,19.81
2023-04-21T13:39:54.722Z,19.92
2023-04-21T13:42:22.589Z,19.64
2023-04-21T13:44:50.481Z,19.79
2023-04-21T13:47:18.346Z,19.90
2023-04-21T13:49:47.530Z,19.91
2023-04-21T13:52:15.336Z,20.04
2023-04-21T13:54:43.283Z,19.88
2023-04-21T13:57:11.344Z,19.89
2023-04-21T13:59:39.445Z,20.03
2023-04-21T14:02:07.979Z,20.02
2023-04-21T14:04:36.556Z,19.68
2023-04-21T14:07:07.984Z,20.13
2023-04-21T14:09:36.030Z,20.16
2023-04-21T14:12:04.374Z,20.47
2023-04-21T14:17:05.665Z,20.44
2023-04-21T14:19:33.998Z,20.38
2023-04-21T14:22:02.112Z,20.23
2023-04-21T14:24:32.363Z,20.19
2023-04-21T14:27:01.103Z,19.70
2023-04-21T14:29:28.987Z,20.00
2023-04-21T14:31:58.605Z,20.24
2023-04-21T14:34:26.833Z,20.27
2023-04-21T14:36:55.195Z,20.19
2023-04-21T14:39:23.277Z,20.42
2023-04-21T14:41:53.338Z,20.53
2023-04-21T14:44:21.329Z,20.67
2023-04-21T14:47:01.008Z,20.41
2023-04-21T14:49:34.171Z,19.92
2023-04-21T14:52:03.533Z,20.32
2023-04-21T14:54:31.567Z,20.00
2023-04-21T14:57:17.422Z,20.03
2023-04-21T14:59:47.455Z,20.24
2023-04-21T15:02:15.665Z,20.27
2023-04-21T15:04:43.770Z,20.21
2023-04-21T15:07:11.767Z,20.13
2023-04-21T15:09:41.079Z,20.14
2023-04-21T15:12:12.717Z,20.31
2023-04-21T15:14:40.647Z,20.27
2023-04-21T15:17:08.715Z,20.02
2023-04-21T15:19:36.739Z,20.16
2023-04-21T15:22:05.804Z,20.10
2023-04-21T15:24:33.568Z,20.06
2023-04-21T15:27:02.245Z,19.85
2023-04-21T15:29:31.448Z,19.74
2023-04-21T15:31:59.298Z,19.58
2023-04-21T15:34:27.084Z,19.63
2023-04-21T15:36:54.922Z,19.44
2023-04-21T15:39:22.746Z,19.41
2023-04-21T15:41:50.800Z,19.44
2023-04-21T15:44:18.771Z,19.50
2023-04-21T15:46:48.229Z,19.68
2023-04-21T15:49:16.068Z,19.87
2023-04-21T15:51:44.080Z,19.69
2023-04-21T15:54:12.061Z,19.79
2023-04-21T15:56:40.311Z,19.73
2023-04-21T15:59:08.118Z,19.84
2023-04-21T16:01:36.092Z,19.86
2023-04-21T16:04:06.358Z,19.89
2023-04-21T16:06:34.936Z,19.84
2023-04-21T16:09:03.314Z,19.73
2023-04-21T16:11:31.108Z,19.81
2023-04-21T16:13:59.074Z,19.85
2023-04-21T16:16:27.034Z,19.67
2023-04-21T16:18:55.094Z,19.81
2023-04-21T16:21:24.389Z,19.59
2023-04-21T16:23:52.262Z,19.71
2023-04-21T16:26:20.200Z,19.77
2023-04-21T16:28:48.140Z,19.55
2023-04-21T16:31:16.249Z,19.71
2023-04-21T16:33:44.069Z,19.82
2023-04-21T16:36:12.038Z,19.84
2023-04-21T16:38:41.268Z,19.92
2023-04-21T16:41:09.241Z,19.85
2023-04-21T16:43:37.387Z,19.59
2023-04-21T16:46:05.295Z,19.67
2023-04-21T16:48:33.257Z,19.55
2023-04-21T16:51:01.147Z,19.52
2023-04-21T16:53:29.011Z,19.69
2023-04-21T16:55:58.506Z,19.57
2023-04-21T16:58:26.458Z,19.68
2023-04-21T17:00:54.327Z,19.63
2023-04-21T17:03:22.590Z,19.72
2023-04-21T17:05:50.732Z,19.59
2023-04-21T17:08:18.597Z,19.64
2023-04-21T17:10:46.484Z,19.60
2023-04-21T17:13:15.615Z,19.67
2023-04-21T17:15:43.514Z,19.65
2023-04-21T17:18:11.523Z,19.41
2023-04-21T17:20:39.536Z,19.34
2023-04-21T17:23:07.500Z,19.23
2023-04-21T17:25:38.098Z,19.31
2023-04-21T17:28:06.437Z,19.11
2023-04-21T17:30:36.343Z,19.31
2023-04-21T17:33:16.121Z,19.16
2023-04-21T17:35:56.193Z,19.15
2023-04-21T17:38:29.871Z,19.15
2023-04-21T17:40:57.676Z,19.06
2023-04-21T17:43:25.566Z,19.07
2023-04-21T17:45:54.802Z,18.87
2023-04-21T17:48:22.655Z,18.81
2023-04-21T17:50:50.635Z,18.43
2023-04-21T17:53:18.895Z,18.84
2023-04-21T17:55:46.739Z,18.84
2023-04-21T17:58:14.678Z,18.65
2023-04-21T18:00:42.569Z,18.40
2023-04-21T18:03:11.943Z,18.46
2023-04-21T18:05:40.672Z,18.33
2023-04-21T18:08:08.761Z,18.33
2023-04-21T18:10:37.324Z,18.24
2023-04-21T18:13:06.128Z,18.12
2023-04-21T18:15:34.129Z,18.15
2023-04-21T18:18:02.120Z,18.16
2023-04-21T18:20:31.491Z,18.16
2023-04-21T18:22:59.500Z,17.85
2023-04-21T18:25:41.512Z,17.80
2023-04-21T18:28:12.399Z,17.84
2023-04-21T18:30:40.561Z,17.76
2023-04-21T18:33:08.523Z,17.62
2023-04-21T18:35:38.110Z,17.15
2023-04-21T18:38:08.006Z,17.58
2023-04-21T18:40:37.038Z,17.60
2023-04-21T18:43:05.256Z,17.53
2023-04-21T18:45:33.915Z,17.27
2023-04-21T18:48:01.921Z,17.45
2023-04-21T18:50:30.172Z,17.31
2023-04-21T18:52:59.926Z,17.39
2023-04-21T18:55:27.747Z,17.31
2023-04-21T18:57:55.609Z,17.14
2023-04-21T19:00:23.899Z,17.00
2023-04-21T19:02:52.116Z,17.14
2023-04-21T19:05:20.463Z,17.20
2023-04-21T19:07:48.510Z,17.00
2023-04-21T19:10:18.302Z,16.90
2023-04-21T19:12:46.099Z,16.80
2023-04-21T19:15:14.084Z,16.73
2023-04-21T19:17:42.179Z,16.78
2023-04-21T19:20:11.271Z,16.88
2023-04-21T19:22:39.302Z,16.83
2023-04-21T19:25:08.584Z,16.65
2023-04-21T19:27:38.136Z,16.66
2023-04-21T19:30:07.102Z,16.51
2023-04-21T19:32:35.094Z,16.39
2023-04-21T19:35:02.948Z,16.12
2023-04-21T19:37:33.532Z,15.76
2023-04-21T19:40:03.179Z,15.79
2023-04-21T19:42:31.525Z,15.52
2023-04-21T19:45:00.731Z,15.59
2023-04-21T19:47:28.494Z,15.51
2023-04-21T19:49:56.460Z,15.40
2023-04-21T19:52:24.336Z,15.19
2023-04-21T19:54:52.531Z,15.05
2023-04-21T19:57:20.564Z,15.03
2023-04-21T19:59:49.024Z,15.03
2023-04-21T20:02:19.457Z,14.79
2023-04-21T20:04:48.743Z,14.68
2023-04-21T20:07:17.473Z,14.69
2023-04-21T20:09:45.469Z,14.55
2023-04-21T20:12:13.263Z,14.34
2023-04-21T20:14:41.131Z,14.42
2023-04-21T20:17:08.982Z,14.41
2023-04-21T20:19:40.576Z,14.54
2023-04-21T20:22:08.672Z,14.54
2023-04-21T20:24:36.555Z,14.42
2023-04-21T20:27:07.190Z,14.29
2023-04-21T20:29:36.746Z,14.28
2023-04-21T20:32:04.816Z,14.26
2023-04-21T20:34:32.741Z,14.11
2023-04-21T20:37:03.830Z,14.18
2023-04-21T20:39:31.661Z,13.92
2023-04-21T20:42:11.926Z,14.08
2023-04-21T20:44:42.498Z,14.13
2023-04-21T20:47:11.465Z,14.12
2023-04-21T20:49:39.979Z,14.73
2023-04-21T20:52:09.695Z,15.22
2023-04-21T20:54:38.282Z,15.72
2023-04-21T20:57:07.337Z,15.08
2023-04-21T20:59:35.559Z,15.66
2023-04-21T21:02:03.625Z,15.74
2023-04-21T21:04:31.653Z,15.84
2023-04-21T21:06:59.781Z,15.88
2023-04-21T21:09:29.037Z,15.80
2023-04-21T21:11:56.862Z,15.96
2023-04-21T21:14:24.735Z,15.78
2023-04-21T21:16:54.507Z,16.02
2023-04-21T21:19:22.424Z,16.00
2023-04-21T21:21:50.155Z,15.83
2023-04-21T21:24:17.986Z,16.10
2023-04-21T21:26:47.132Z,15.68
2023-04-21T21:29:14.986Z,16.01
2023-04-21T21:31:43.207Z,16.05
2023-04-21T21:34:11.117Z,16.07
2023-04-21T21:36:38.906Z,16.09
2023-04-21T21:39:09.594Z,16.00
2023-04-21T21:41:38.932Z,16.01
2023-04-21T21:44:08.754Z,16.01
2023-04-21T21:46:36.759Z,16.10
2023-04-21T21:49:04.787Z,16.15
2023-04-21T21:51:32.698Z,16.15
2023-04-21T21:54:00.615Z,16.06
2023-04-21T21:56:28.587Z,16.04
2023-04-21T21:58:56.462Z,16.01
2023-04-21T22:01:25.882Z,15.74
2023-04-21T22:03:54.187Z,15.93
2023-04-21T22:06:24.382Z,15.91
2023-04-21T22:08:52.723Z,15.69
2023-04-21T22:11:20.806Z,15.91
2023-04-21T22:13:48.689Z,15.72
2023-04-21T22:16:16.909Z,15.90
2023-04-21T22:18:47.277Z,15.89
2023-04-21T22:21:14.948Z,15.93
2023-04-21T22:23:42.745Z,15.83
2023-04-21T22:26:10.709Z,15.84
2023-04-21T22:28:38.553Z,15.82
2023-04-21T22:31:06.742Z,15.71
2023-04-21T22:33:34.664Z,15.56
2023-04-21T22:36:03.838Z,15.58
2023-04-21T22:38:31.713Z,15.49
2023-04-21T22:40:59.508Z,15.43
2023-04-21T22:43:27.448Z,15.22
2023-04-21T22:45:55.520Z,15.51
2023-04-21T22:48:26.163Z,15.46
2023-04-21T22:50:54.355Z,15.48
2023-04-21T22:53:23.583Z,15.28
2023-04-21T22:55:51.504Z,15.26
2023-04-21T22:58:19.900Z,15.13
2023-04-21T23:00:47.803Z,15.13
2023-04-21T23:03:16.028Z,15.28
2023-04-21T23:05:43.956Z,15.19
2023-04-21T23:08:11.848Z,15.06
2023-04-21T23:10:41.471Z,15.09
2023-04-21T23:13:09.622Z,14.50
2023-04-21T23:15:37.555Z,15.17
2023-04-21T23:18:05.559Z,14.58
2023-04-21T23:20:33.734Z,15.32
2023-04-21T23:23:01.615Z,15.27
2023-04-21T23:25:29.591Z,15.39
2023-04-21T23:27:58.752Z,15.19
2023-04-21T23:30:26.700Z,15.29
2023-04-21T23:32:54.820Z,15.21
2023-04-21T23:35:22.843Z,15.09
2023-04-21T23:37:50.576Z,15.23
2023-04-21T23:40:18.614Z,15.12
2023-04-21T23:42:47.475Z,15.14
2023-04-21T23:45:17.097Z,15.12
2023-04-21T23:47:45.541Z,15.08
2023-04-21T23:50:13.589Z,14.98
2023-04-21T23:52:42.109Z,14.89
2023-04-21T23:55:11.847Z,14.70
2023-04-21T23:57:39.833Z,14.75
